sensor_id;sensor_type;location;lat;lon;timestamp;P1;durP1;ratioP1;P2;durP2;ratioP2
15256;SDS011;7731;50.720;6.912;2022-12-31T00:01:55;0.40;;;0.30;;
15256;SDS011;7731;50.720;6.912;2022-12-31T00:04:26;0.40;;;0.30;;
15256;SDS011;7731;50.720;6.912;2022-12-31T00:06:58;3.15;;;0.40;;
15256;SDS011;7731;50.720;6.912;2022-12-31T00:09:31;0.55;;;0.40;;
15256;SDS011;7731;50.720;6.912;2022-12-31T00:12:01;0.30;;;0.20;;
15256;SDS011;7731;50.720;6.912;2022-12-31T00:14:34;0.40;;;0.30;;
15256;SDS011;7731;50.720;6.912;2022-12-31T00:17:04;0.40;;;0.30;;
15256;SDS011;7731;50.720;6.912;2022-12-31T00:19:35;0.38;;;0.30;;
15256;SDS011;7731;50.720;6.912;2022-12-31T00:22:07;0.38;;;0.30;;
15256;SDS011;7731;50.720;6.912;2022-12-31T00:24:38;0.30;;;0.20;;
15256;SDS011;7731;50.720;6.912;2022-12-31T00:27:08;0.30;;;0.30;;
15256;SDS011;7731;50.720;6.912;2022-12-31T00:29:38;0.30;;;0.30;;
15256;SDS011;7731;50.720;6.912;2022-12-31T00:32:08;0.40;;;0.30;;
15256;SDS011;7731;50.720;6.912;2022-12-31T00:34:38;0.82;;;0.30;;
15256;SDS011;7731;50.720;6.912;2022-12-31T00:37:11;0.30;;;0.30;;
15256;SDS011;7731;50.720;6.912;2022-12-31T00:39:41;0.55;;;0.30;;
15256;SDS011;7731;50.720;6.912;2022-12-31T00:42:11;0.50;;;0.40;;
15256;SDS011;7731;50.720;6.912;2022-12-31T00:44:41;0.82;;;0.20;;
15256;SDS011;7731;50.720;6.912;2022-12-31T00:47:11;0.40;;;0.20;;
15256;SDS011;7731;50.720;6.912;2022-12-31T00:49:42;0.73;;;0.38;;
15256;SDS011;7731;50.720;6.912;2022-12-31T00:52:14;0.40;;;0.20;;
15256;SDS011;7731;50.720;6.912;2022-12-31T00:54:45;0.30;;;0.20;;
15256;SDS011;7731;50.720;6.912;2022-12-31T00:57:15;0.40;;;0.30;;
15256;SDS011;7731;50.720;6.912;2022-12-31T00:59:45;0.65;;;0.30;;
15256;SDS011;7731;50.720;6.912;2022-12-31T01:02:15;0.40;;;0.30;;
15256;SDS011;7731;50.720;6.912;2022-12-31T01:04:45;0.30;;;0.10;;
15256;SDS011;7731;50.720;6.912;2022-12-31T01:07:19;0.30;;;0.10;;
15256;SDS011;7731;50.720;6.912;2022-12-31T01:09:49;0.30;;;0.20;;
15256;SDS011;7731;50.720;6.912;2022-12-31T01:12:20;0.30;;;0.20;;
15256;SDS011;7731;50.720;6.912;2022-12-31T01:14:52;1.15;;;0.20;;
15256;SDS011;7731;50.720;6.912;2022-12-31T01:17:24;0.32;;;0.20;;
15256;SDS011;7731;50.720;6.912;2022-12-31T01:19:55;0.30;;;0.20;;
15256;SDS011;7731;50.720;6.912;2022-12-31T01:22:30;0.32;;;0.30;;
15256;SDS011;7731;50.720;6.912;2022-12-31T01:25:00;0.50;;;0.15;;
15256;SDS011;7731;50.720;6.912;2022-12-31T01:27:30;0.30;;;0.20;;
15256;SDS011;7731;50.720;6.912;2022-12-31T01:30:00;0.40;;;0.20;;
15256;SDS011;7731;50.720;6.912;2022-12-31T01:32:31;0.68;;;0.20;;
15256;SDS011;7731;50.720;6.912;2022-12-31T01:35:01;0.30;;;0.20;;
15256;SDS011;7731;50.720;6.912;2022-12-31T01:37:36;1.20;;;0.25;;
15256;SDS011;7731;50.720;6.912;2022-12-31T01:40:07;0.30;;;0.10;;
15256;SDS011;7731;50.720;6.912;2022-12-31T01:42:37;0.30;;;0.20;;
15256;SDS011;7731;50.720;6.912;2022-12-31T01:45:09;0.30;;;0.10;;
15256;SDS011;7731;50.720;6.912;2022-12-31T01:47:43;0.30;;;0.20;;
15256;SDS011;7731;50.720;6.912;2022-12-31T01:50:19;0.63;;;0.20;;
15256;SDS011;7731;50.720;6.912;2022-12-31T01:52:59;0.40;;;0.20;;
15256;SDS011;7731;50.720;6.912;2022-12-31T01:55:33;0.30;;;0.10;;
15256;SDS011;7731;50.720;6.912;2022-12-31T01:58:14;0.30;;;0.20;;
15256;SDS011;7731;50.720;6.912;2022-12-31T02:00:48;0.30;;;0.10;;
15256;SDS011;7731;50.720;6.912;2022-12-31T02:03:22;0.88;;;0.30;;
15256;SDS011;7731;50.720;6.912;2022-12-31T02:05:56;0.85;;;0.20;;
15256;SDS011;7731;50.720;6.912;2022-12-31T02:08:38;0.30;;;0.13;;
15256;SDS011;7731;50.720;6.912;2022-12-31T02:11:23;0.30;;;0.20;;
15256;SDS011;7731;50.720;6.912;2022-12-31T02:13:58;0.30;;;0.20;;
15256;SDS011;7731;50.720;6.912;2022-12-31T02:16:34;0.30;;;0.15;;
15256;SDS011;7731;50.720;6.912;2022-12-31T02:19:29;0.65;;;0.20;;
15256;SDS011;7731;50.720;6.912;2022-12-31T02:22:48;0.40;;;0.40;;
15256;SDS011;7731;50.720;6.912;2022-12-31T02:29:32;0.30;;;0.30;;
15256;SDS011;7731;50.720;6.912;2022-12-31T02:32:48;0.95;;;0.30;;
15256;SDS011;7731;50.720;6.912;2022-12-31T02:35:40;0.30;;;0.20;;
15256;SDS011;7731;50.720;6.912;2022-12-31T02:38:35;0.30;;;0.15;;
15256;SDS011;7731;50.720;6.912;2022-12-31T02:41:12;0.60;;;0.30;;
15256;SDS011;7731;50.720;6.912;2022-12-31T02:44:18;0.75;;;0.20;;
15256;SDS011;7731;50.720;6.912;2022-12-31T02:46:58;0.40;;;0.20;;
15256;SDS011;7731;50.720;6.912;2022-12-31T02:49:45;0.40;;;0.30;;
15256;SDS011;7731;50.720;6.912;2022-12-31T02:52:43;1.05;;;0.30;;
15256;SDS011;7731;50.720;6.912;2022-12-31T02:55:29;0.30;;;0.20;;
15256;SDS011;7731;50.720;6.912;2022-12-31T02:58:10;0.50;;;0.20;;
15256;SDS011;7731;50.720;6.912;2022-12-31T03:01:10;0.38;;;0.20;;
15256;SDS011;7731;50.720;6.912;2022-12-31T03:04:08;1.25;;;0.28;;
15256;SDS011;7731;50.720;6.912;2022-12-31T03:06:52;0.30;;;0.30;;
15256;SDS011;7731;50.720;6.912;2022-12-31T03:09:23;0.30;;;0.30;;
15256;SDS011;7731;50.720;6.912;2022-12-31T03:11:53;0.50;;;0.30;;
15256;SDS011;7731;50.720;6.912;2022-12-31T03:14:36;0.40;;;0.20;;
15256;SDS011;7731;50.720;6.912;2022-12-31T03:17:06;0.73;;;0.30;;
15256;SDS011;7731;50.720;6.912;2022-12-31T03:19:39;0.30;;;0.20;;
15256;SDS011;7731;50.720;6.912;2022-12-31T03:22:22;0.43;;;0.30;;
15256;SDS011;7731;50.720;6.912;2022-12-31T03:24:59;0.30;;;0.20;;
15256;SDS011;7731;50.720;6.912;2022-12-31T03:27:45;0.75;;;0.22;;
15256;SDS011;7731;50.720;6.912;2022-12-31T03:30:17;0.93;;;0.22;;
15256;SDS011;7731;50.720;6.912;2022-12-31T03:32:49;0.30;;;0.20;;
15256;SDS011;7731;50.720;6.912;2022-12-31T03:35:24;0.47;;;0.20;;
15256;SDS011;7731;50.720;6.912;2022-12-31T03:37:57;0.30;;;0.20;;
15256;SDS011;7731;50.720;6.912;2022-12-31T03:40:28;0.40;;;0.30;;
15256;SDS011;7731;50.720;6.912;2022-12-31T03:43:00;0.30;;;0.10;;
15256;SDS011;7731;50.720;6.912;2022-12-31T03:45:30;0.55;;;0.20;;
15256;SDS011;7731;50.720;6.912;2022-12-31T03:48:02;0.50;;;0.20;;
15256;SDS011;7731;50.720;6.912;2022-12-31T03:50:38;0.30;;;0.20;;
15256;SDS011;7731;50.720;6.912;2022-12-31T03:53:10;0.50;;;0.20;;
15256;SDS011;7731;50.720;6.912;2022-12-31T03:55:41;0.55;;;0.30;;
15256;SDS011;7731;50.720;6.912;2022-12-31T03:58:11;0.40;;;0.25;;
15256;SDS011;7731;50.720;6.912;2022-12-31T04:00:41;0.40;;;0.20;;
15256;SDS011;7731;50.720;6.912;2022-12-31T04:03:11;0.40;;;0.20;;
15256;SDS011;7731;50.720;6.912;2022-12-31T04:05:44;0.30;;;0.20;;
15256;SDS011;7731;50.720;6.912;2022-12-31T04:08:22;0.55;;;0.30;;
15256;SDS011;7731;50.720;6.912;2022-12-31T04:10:53;0.30;;;0.20;;
15256;SDS011;7731;50.720;6.912;2022-12-31T04:13:23;0.45;;;0.20;;
15256;SDS011;7731;50.720;6.912;2022-12-31T04:15:55;2.58;;;0.50;;
15256;SDS011;7731;50.720;6.912;2022-12-31T04:18:25;0.82;;;0.30;;
15256;SDS011;7731;50.720;6.912;2022-12-31T04:21:02;0.30;;;0.20;;
15256;SDS011;7731;50.720;6.912;2022-12-31T04:23:33;0.40;;;0.30;;
15256;SDS011;7731;50.720;6.912;2022-12-31T04:26:03;0.47;;;0.30;;
15256;SDS011;7731;50.720;6.912;2022-12-31T04:28:34;0.40;;;0.40;;
15256;SDS011;7731;50.720;6.912;2022-12-31T04:31:04;1.08;;;0.40;;
15256;SDS011;7731;50.720;6.912;2022-12-31T04:33:37;0.63;;;0.40;;
15256;SDS011;7731;50.720;6.912;2022-12-31T04:36:10;0.82;;;0.30;;
15256;SDS011;7731;50.720;6.912;2022-12-31T04:38:40;0.30;;;0.30;;
15256;SDS011;7731;50.720;6.912;2022-12-31T04:41:10;0.30;;;0.30;;
15256;SDS011;7731;50.720;6.912;2022-12-31T04:43:47;0.73;;;0.40;;
15256;SDS011;7731;50.720;6.912;2022-12-31T04:46:20;0.57;;;0.30;;
15256;SDS011;7731;50.720;6.912;2022-12-31T04:48:55;0.40;;;0.30;;
15256;SDS011;7731;50.720;6.912;2022-12-31T04:51:29;0.52;;;0.30;;
15256;SDS011;7731;50.720;6.912;2022-12-31T04:53:59;0.50;;;0.40;;
15256;SDS011;7731;50.720;6.912;2022-12-31T04:56:30;1.63;;;0.50;;
15256;SDS011;7731;50.720;6.912;2022-12-31T04:59:04;1.33;;;0.40;;
15256;SDS011;7731;50.720;6.912;2022-12-31T05:01:35;1.52;;;0.55;;
15256;SDS011;7731;50.720;6.912;2022-12-31T05:04:06;0.65;;;0.50;;
15256;SDS011;7731;50.720;6.912;2022-12-31T05:06:38;1.55;;;0.52;;
15256;SDS011;7731;50.720;6.912;2022-12-31T05:09:09;2.00;;;0.60;;
15256;SDS011;7731;50.720;6.912;2022-12-31T05:11:39;1.80;;;0.50;;
15256;SDS011;7731;50.720;6.912;2022-12-31T05:14:09;1.50;;;0.70;;
15256;SDS011;7731;50.720;6.912;2022-12-31T05:16:42;2.88;;;0.60;;
15256;SDS011;7731;50.720;6.912;2022-12-31T05:19:12;1.83;;;0.70;;
15256;SDS011;7731;50.720;6.912;2022-12-31T05:21:48;1.52;;;0.68;;
15256;SDS011;7731;50.720;6.912;2022-12-31T05:24:31;1.50;;;0.82;;
15256;SDS011;7731;50.720;6.912;2022-12-31T05:27:02;1.67;;;0.80;;
15256;SDS011;7731;50.720;6.912;2022-12-31T05:29:34;0.90;;;0.68;;
15256;SDS011;7731;50.720;6.912;2022-12-31T05:32:05;1.50;;;0.70;;
15256;SDS011;7731;50.720;6.912;2022-12-31T05:34:35;1.27;;;0.60;;
15256;SDS011;7731;50.720;6.912;2022-12-31T05:37:07;2.72;;;0.80;;
15256;SDS011;7731;50.720;6.912;2022-12-31T05:39:38;1.05;;;0.50;;
15256;SDS011;7731;50.720;6.912;2022-12-31T05:42:08;2.10;;;0.70;;
15256;SDS011;7731;50.720;6.912;2022-12-31T05:44:38;2.10;;;0.60;;
15256;SDS011;7731;50.720;6.912;2022-12-31T05:47:08;2.72;;;0.63;;
15256;SDS011;7731;50.720;6.912;2022-12-31T05:49:38;1.33;;;0.70;;
15256;SDS011;7731;50.720;6.912;2022-12-31T05:52:11;1.00;;;0.57;;
15256;SDS011;7731;50.720;6.912;2022-12-31T05:54:42;2.55;;;1.00;;
15256;SDS011;7731;50.720;6.912;2022-12-31T05:57:12;2.35;;;0.80;;
15256;SDS011;7731;50.720;6.912;2022-12-31T05:59:42;0.80;;;0.70;;
15256;SDS011;7731;50.720;6.912;2022-12-31T06:02:15;2.08;;;0.60;;
15256;SDS011;7731;50.720;6.912;2022-12-31T06:04:47;1.55;;;0.63;;
15256;SDS011;7731;50.720;6.912;2022-12-31T06:07:20;2.53;;;1.00;;
15256;SDS011;7731;50.720;6.912;2022-12-31T06:09:50;1.80;;;0.63;;
15256;SDS011;7731;50.720;6.912;2022-12-31T06:12:20;1.55;;;0.70;;
15256;SDS011;7731;50.720;6.912;2022-12-31T06:14:50;1.42;;;0.68;;
15256;SDS011;7731;50.720;6.912;2022-12-31T06:17:20;1.80;;;0.70;;
15256;SDS011;7731;50.720;6.912;2022-12-31T06:19:51;0.82;;;0.63;;
15256;SDS011;7731;50.720;6.912;2022-12-31T06:22:24;1.00;;;0.60;;
15256;SDS011;7731;50.720;6.912;2022-12-31T06:24:54;3.85;;;0.80;;
15256;SDS011;7731;50.720;6.912;2022-12-31T06:27:24;2.17;;;0.80;;
15256;SDS011;7731;50.720;6.912;2022-12-31T06:29:54;1.58;;;0.90;;
15256;SDS011;7731;50.720;6.912;2022-12-31T06:32:24;1.67;;;0.80;;
15256;SDS011;7731;50.720;6.912;2022-12-31T06:34:55;1.30;;;0.70;;
15256;SDS011;7731;50.720;6.912;2022-12-31T06:37:27;1.15;;;0.55;;
15256;SDS011;7731;50.720;6.912;2022-12-31T06:39:57;1.70;;;0.70;;
15256;SDS011;7731;50.720;6.912;2022-12-31T06:42:29;1.52;;;0.70;;
15256;SDS011;7731;50.720;6.912;2022-12-31T06:44:59;3.30;;;1.90;;
15256;SDS011;7731;50.720;6.912;2022-12-31T06:47:29;1.95;;;0.80;;
15256;SDS011;7731;50.720;6.912;2022-12-31T06:50:00;2.75;;;0.75;;
15256;SDS011;7731;50.720;6.912;2022-12-31T06:52:33;1.98;;;0.70;;
15256;SDS011;7731;50.720;6.912;2022-12-31T06:55:05;1.00;;;0.80;;
15256;SDS011;7731;50.720;6.912;2022-12-31T06:57:38;1.73;;;0.90;;
15256;SDS011;7731;50.720;6.912;2022-12-31T07:00:11;1.50;;;0.70;;
15256;SDS011;7731;50.720;6.912;2022-12-31T07:02:53;1.73;;;0.57;;
15256;SDS011;7731;50.720;6.912;2022-12-31T07:05:48;1.08;;;0.75;;
15256;SDS011;7731;50.720;6.912;2022-12-31T07:08:32;2.00;;;0.85;;
15256;SDS011;7731;50.720;6.912;2022-12-31T07:11:19;1.77;;;0.85;;
15256;SDS011;7731;50.720;6.912;2022-12-31T07:13:58;3.00;;;0.90;;
15256;SDS011;7731;50.720;6.912;2022-12-31T07:16:51;1.42;;;0.73;;
15256;SDS011;7731;50.720;6.912;2022-12-31T07:19:40;1.13;;;0.70;;
15256;SDS011;7731;50.720;6.912;2022-12-31T07:22:23;1.88;;;0.80;;
15256;SDS011;7731;50.720;6.912;2022-12-31T07:24:57;1.55;;;0.80;;
15256;SDS011;7731;50.720;6.912;2022-12-31T07:27:32;0.70;;;0.60;;
15256;SDS011;7731;50.720;6.912;2022-12-31T07:30:18;1.02;;;0.82;;
15256;SDS011;7731;50.720;6.912;2022-12-31T07:32:58;1.55;;;0.98;;
15256;SDS011;7731;50.720;6.912;2022-12-31T07:35:48;1.45;;;0.70;;
15256;SDS011;7731;50.720;6.912;2022-12-31T07:38:35;2.05;;;0.90;;
15256;SDS011;7731;50.720;6.912;2022-12-31T07:41:20;1.58;;;0.75;;
15256;SDS011;7731;50.720;6.912;2022-12-31T07:44:10;1.80;;;0.80;;
15256;SDS011;7731;50.720;6.912;2022-12-31T07:46:58;1.98;;;0.90;;
15256;SDS011;7731;50.720;6.912;2022-12-31T07:49:32;1.40;;;0.70;;
15256;SDS011;7731;50.720;6.912;2022-12-31T07:52:06;1.80;;;1.10;;
15256;SDS011;7731;50.720;6.912;2022-12-31T07:54:38;1.77;;;1.00;;
15256;SDS011;7731;50.720;6.912;2022-12-31T07:57:11;2.33;;;1.02;;
15256;SDS011;7731;50.720;6.912;2022-12-31T07:59:51;1.67;;;0.82;;
15256;SDS011;7731;50.720;6.912;2022-12-31T08:02:38;2.03;;;0.75;;
15256;SDS011;7731;50.720;6.912;2022-12-31T08:05:39;2.50;;;0.88;;
15256;SDS011;7731;50.720;6.912;2022-12-31T08:08:22;2.63;;;1.20;;
15256;SDS011;7731;50.720;6.912;2022-12-31T08:11:08;2.42;;;1.08;;
15256;SDS011;7731;50.720;6.912;2022-12-31T08:13:48;1.65;;;0.88;;
15256;SDS011;7731;50.720;6.912;2022-12-31T08:16:22;3.15;;;1.10;;
15256;SDS011;7731;50.720;6.912;2022-12-31T08:18:54;1.38;;;0.90;;
15256;SDS011;7731;50.720;6.912;2022-12-31T08:21:30;2.08;;;1.00;;
15256;SDS011;7731;50.720;6.912;2022-12-31T08:24:15;3.25;;;1.10;;
15256;SDS011;7731;50.720;6.912;2022-12-31T08:26:58;2.60;;;0.98;;
15256;SDS011;7731;50.720;6.912;2022-12-31T08:29:48;1.90;;;1.05;;
15256;SDS011;7731;50.720;6.912;2022-12-31T08:32:30;1.20;;;0.85;;
15256;SDS011;7731;50.720;6.912;2022-12-31T08:35:16;2.58;;;1.00;;
15256;SDS011;7731;50.720;6.912;2022-12-31T08:38:01;2.80;;;0.90;;
15256;SDS011;7731;50.720;6.912;2022-12-31T08:40:46;1.55;;;1.20;;
15256;SDS011;7731;50.720;6.912;2022-12-31T08:43:32;4.25;;;2.95;;
15256;SDS011;7731;50.720;6.912;2022-12-31T08:46:19;3.00;;;1.80;;
15256;SDS011;7731;50.720;6.912;2022-12-31T08:48:59;3.85;;;2.05;;
15256;SDS011;7731;50.720;6.912;2022-12-31T08:51:30;3.42;;;1.60;;
15256;SDS011;7731;50.720;6.912;2022-12-31T08:54:01;4.95;;;3.08;;
15256;SDS011;7731;50.720;6.912;2022-12-31T08:56:33;3.72;;;1.60;;
15256;SDS011;7731;50.720;6.912;2022-12-31T08:59:31;3.15;;;1.58;;
15256;SDS011;7731;50.720;6.912;2022-12-31T09:05:51;2.67;;;1.30;;
15256;SDS011;7731;50.720;6.912;2022-12-31T09:08:34;4.13;;;1.10;;
15256;SDS011;7731;50.720;6.912;2022-12-31T09:11:16;2.22;;;1.10;;
15256;SDS011;7731;50.720;6.912;2022-12-31T09:14:12;2.17;;;1.00;;
15256;SDS011;7731;50.720;6.912;2022-12-31T09:17:23;1.50;;;1.20;;
15256;SDS011;7731;50.720;6.912;2022-12-31T09:20:37;1.52;;;0.98;;
15256;SDS011;7731;50.720;6.912;2022-12-31T09:23:12;2.75;;;0.95;;
15256;SDS011;7731;50.720;6.912;2022-12-31T09:25:44;2.50;;;1.08;;
15256;SDS011;7731;50.720;6.912;2022-12-31T09:28:28;4.05;;;1.27;;
15256;SDS011;7731;50.720;6.912;2022-12-31T09:31:12;3.70;;;1.20;;
15256;SDS011;7731;50.720;6.912;2022-12-31T09:33:50;2.83;;;1.02;;
15256;SDS011;7731;50.720;6.912;2022-12-31T09:36:33;2.55;;;1.35;;
15256;SDS011;7731;50.720;6.912;2022-12-31T09:39:15;2.97;;;1.08;;
15256;SDS011;7731;50.720;6.912;2022-12-31T09:45:33;2.92;;;1.00;;
15256;SDS011;7731;50.720;6.912;2022-12-31T09:51:42;2.45;;;1.30;;
15256;SDS011;7731;50.720;6.912;2022-12-31T09:54:31;1.80;;;1.10;;
15256;SDS011;7731;50.720;6.912;2022-12-31T09:57:24;2.25;;;1.25;;
15256;SDS011;7731;50.720;6.912;2022-12-31T10:00:09;1.13;;;0.77;;
15256;SDS011;7731;50.720;6.912;2022-12-31T10:03:09;3.95;;;1.10;;
15256;SDS011;7731;50.720;6.912;2022-12-31T10:06:15;2.55;;;1.13;;
15256;SDS011;7731;50.720;6.912;2022-12-31T10:12:30;3.10;;;1.23;;
15256;SDS011;7731;50.720;6.912;2022-12-31T10:15:44;3.72;;;1.40;;
15256;SDS011;7731;50.720;6.912;2022-12-31T10:18:51;3.38;;;1.10;;
15256;SDS011;7731;50.720;6.912;2022-12-31T10:22:37;2.33;;;1.15;;
15256;SDS011;7731;50.720;6.912;2022-12-31T10:25:32;2.60;;;1.10;;
15256;SDS011;7731;50.720;6.912;2022-12-31T10:28:34;3.78;;;1.38;;
15256;SDS011;7731;50.720;6.912;2022-12-31T10:31:27;3.40;;;1.10;;
15256;SDS011;7731;50.720;6.912;2022-12-31T10:34:24;4.07;;;1.30;;
15256;SDS011;7731;50.720;6.912;2022-12-31T10:37:07;1.35;;;1.10;;
15256;SDS011;7731;50.720;6.912;2022-12-31T10:39:46;2.42;;;1.25;;
15256;SDS011;7731;50.720;6.912;2022-12-31T10:49:26;1.88;;;0.80;;
15256;SDS011;7731;50.720;6.912;2022-12-31T10:55:53;5.97;;;1.08;;
15256;SDS011;7731;50.720;6.912;2022-12-31T10:59:04;4.10;;;1.20;;
15256;SDS011;7731;50.720;6.912;2022-12-31T11:02:32;4.05;;;1.60;;
15256;SDS011;7731;50.720;6.912;2022-12-31T11:06:13;3.03;;;1.20;;
15256;SDS011;7731;50.720;6.912;2022-12-31T11:09:43;2.47;;;1.00;;
15256;SDS011;7731;50.720;6.912;2022-12-31T11:19:22;4.22;;;1.27;;
15256;SDS011;7731;50.720;6.912;2022-12-31T11:22:20;2.65;;;1.20;;
15256;SDS011;7731;50.720;6.912;2022-12-31T11:25:24;3.83;;;3.03;;
15256;SDS011;7731;50.720;6.912;2022-12-31T11:28:19;3.13;;;2.20;;
15256;SDS011;7731;50.720;6.912;2022-12-31T11:34:57;2.50;;;1.20;;
15256;SDS011;7731;50.720;6.912;2022-12-31T11:37:46;4.05;;;1.60;;
15256;SDS011;7731;50.720;6.912;2022-12-31T11:43:25;3.65;;;1.30;;
15256;SDS011;7731;50.720;6.912;2022-12-31T11:49:28;2.53;;;1.15;;
15256;SDS011;7731;50.720;6.912;2022-12-31T11:52:31;2.33;;;1.35;;
15256;SDS011;7731;50.720;6.912;2022-12-31T11:55:22;3.30;;;1.75;;
15256;SDS011;7731;50.720;6.912;2022-12-31T11:58:16;2.45;;;1.30;;
15256;SDS011;7731;50.720;6.912;2022-12-31T12:00:55;1.60;;;1.17;;
15256;SDS011;7731;50.720;6.912;2022-12-31T12:03:29;6.90;;;1.48;;
15256;SDS011;7731;50.720;6.912;2022-12-31T12:06:05;2.47;;;1.70;;
15256;SDS011;7731;50.720;6.912;2022-12-31T12:08:44;2.92;;;1.45;;
15256;SDS011;7731;50.720;6.912;2022-12-31T12:11:17;2.53;;;1.35;;
15256;SDS011;7731;50.720;6.912;2022-12-31T12:13:51;3.15;;;1.30;;
15256;SDS011;7731;50.720;6.912;2022-12-31T12:16:21;2.67;;;1.30;;
15256;SDS011;7731;50.720;6.912;2022-12-31T12:19:01;1.75;;;1.40;;
15256;SDS011;7731;50.720;6.912;2022-12-31T12:21:43;3.15;;;1.60;;
15256;SDS011;7731;50.720;6.912;2022-12-31T12:24:19;3.70;;;1.50;;
15256;SDS011;7731;50.720;6.912;2022-12-31T12:26:54;3.08;;;1.33;;
15256;SDS011;7731;50.720;6.912;2022-12-31T12:29:27;4.20;;;1.42;;
15256;SDS011;7731;50.720;6.912;2022-12-31T12:32:02;1.90;;;1.27;;
15256;SDS011;7731;50.720;6.912;2022-12-31T12:34:36;3.53;;;1.38;;
15256;SDS011;7731;50.720;6.912;2022-12-31T12:37:25;4.63;;;1.60;;
15256;SDS011;7731;50.720;6.912;2022-12-31T12:40:03;26.67;;;16.90;;
15256;SDS011;7731;50.720;6.912;2022-12-31T12:42:47;25.52;;;17.00;;
15256;SDS011;7731;50.720;6.912;2022-12-31T12:45:21;7.05;;;2.25;;
15256;SDS011;7731;50.720;6.912;2022-12-31T12:47:55;3.25;;;1.52;;
15256;SDS011;7731;50.720;6.912;2022-12-31T12:50:33;2.08;;;1.70;;
15256;SDS011;7731;50.720;6.912;2022-12-31T12:53:13;3.17;;;1.25;;
15256;SDS011;7731;50.720;6.912;2022-12-31T12:56:01;3.00;;;0.95;;
15256;SDS011;7731;50.720;6.912;2022-12-31T12:58:51;2.20;;;1.40;;
15256;SDS011;7731;50.720;6.912;2022-12-31T13:01:41;4.00;;;1.60;;
15256;SDS011;7731;50.720;6.912;2022-12-31T13:04:23;2.63;;;1.30;;
15256;SDS011;7731;50.720;6.912;2022-12-31T13:07:15;3.63;;;1.35;;
15256;SDS011;7731;50.720;6.912;2022-12-31T13:10:04;4.60;;;1.60;;
15256;SDS011;7731;50.720;6.912;2022-12-31T13:12:56;4.25;;;1.65;;
15256;SDS011;7731;50.720;6.912;2022-12-31T13:15:51;4.30;;;1.77;;
15256;SDS011;7731;50.720;6.912;2022-12-31T13:18:35;2.72;;;1.60;;
15256;SDS011;7731;50.720;6.912;2022-12-31T13:21:23;2.70;;;1.48;;
15256;SDS011;7731;50.720;6.912;2022-12-31T13:24:12;4.82;;;2.60;;
15256;SDS011;7731;50.720;6.912;2022-12-31T13:26:58;2.35;;;1.58;;
15256;SDS011;7731;50.720;6.912;2022-12-31T13:29:43;4.72;;;1.70;;
15256;SDS011;7731;50.720;6.912;2022-12-31T13:32:18;2.50;;;1.20;;
15256;SDS011;7731;50.720;6.912;2022-12-31T13:34:57;3.35;;;1.90;;
15256;SDS011;7731;50.720;6.912;2022-12-31T13:37:45;2.42;;;1.23;;
15256;SDS011;7731;50.720;6.912;2022-12-31T13:40:18;2.25;;;1.20;;
15256;SDS011;7731;50.720;6.912;2022-12-31T13:42:57;2.47;;;1.50;;
15256;SDS011;7731;50.720;6.912;2022-12-31T13:45:37;8.70;;;7.93;;
15256;SDS011;7731;50.720;6.912;2022-12-31T13:48:16;2.70;;;1.42;;
15256;SDS011;7731;50.720;6.912;2022-12-31T13:51:03;4.38;;;1.58;;
15256;SDS011;7731;50.720;6.912;2022-12-31T13:53:44;2.17;;;1.13;;
15256;SDS011;7731;50.720;6.912;2022-12-31T13:56:23;2.38;;;1.27;;
15256;SDS011;7731;50.720;6.912;2022-12-31T13:59:04;2.35;;;1.30;;
15256;SDS011;7731;50.720;6.912;2022-12-31T14:01:48;2.67;;;1.20;;
15256;SDS011;7731;50.720;6.912;2022-12-31T14:04:26;3.30;;;1.60;;
15256;SDS011;7731;50.720;6.912;2022-12-31T14:07:06;4.72;;;1.40;;
15256;SDS011;7731;50.720;6.912;2022-12-31T14:09:45;4.60;;;1.80;;
15256;SDS011;7731;50.720;6.912;2022-12-31T14:12:20;5.65;;;1.65;;
15256;SDS011;7731;50.720;6.912;2022-12-31T14:15:09;4.65;;;1.40;;
15256;SDS011;7731;50.720;6.912;2022-12-31T14:17:59;3.05;;;2.00;;
15256;SDS011;7731;50.720;6.912;2022-12-31T14:20:41;3.53;;;2.17;;
15256;SDS011;7731;50.720;6.912;2022-12-31T14:23:19;7.40;;;1.70;;
15256;SDS011;7731;50.720;6.912;2022-12-31T14:26:15;3.17;;;2.00;;
15256;SDS011;7731;50.720;6.912;2022-12-31T14:28:58;3.15;;;1.33;;
15256;SDS011;7731;50.720;6.912;2022-12-31T14:31:59;4.90;;;2.00;;
15256;SDS011;7731;50.720;6.912;2022-12-31T14:34:55;6.53;;;2.00;;
15256;SDS011;7731;50.720;6.912;2022-12-31T14:37:45;4.32;;;1.50;;
15256;SDS011;7731;50.720;6.912;2022-12-31T14:40:31;2.63;;;1.20;;
15256;SDS011;7731;50.720;6.912;2022-12-31T14:43:21;1.98;;;1.20;;
15256;SDS011;7731;50.720;6.912;2022-12-31T14:46:07;2.65;;;1.40;;
15256;SDS011;7731;50.720;6.912;2022-12-31T14:48:51;4.10;;;1.30;;
15256;SDS011;7731;50.720;6.912;2022-12-31T14:51:38;3.58;;;1.42;;
15256;SDS011;7731;50.720;6.912;2022-12-31T14:54:25;3.28;;;1.20;;
15256;SDS011;7731;50.720;6.912;2022-12-31T14:57:07;3.05;;;1.17;;
15256;SDS011;7731;50.720;6.912;2022-12-31T14:59:49;3.15;;;1.30;;
15256;SDS011;7731;50.720;6.912;2022-12-31T15:02:27;3.17;;;1.38;;
15256;SDS011;7731;50.720;6.912;2022-12-31T15:05:08;3.00;;;1.50;;
15256;SDS011;7731;50.720;6.912;2022-12-31T15:07:51;2.97;;;1.48;;
15256;SDS011;7731;50.720;6.912;2022-12-31T15:10:44;3.70;;;1.60;;
15256;SDS011;7731;50.720;6.912;2022-12-31T15:13:35;2.97;;;1.20;;
15256;SDS011;7731;50.720;6.912;2022-12-31T15:16:27;2.88;;;1.70;;
15256;SDS011;7731;50.720;6.912;2022-12-31T15:22:36;2.97;;;1.50;;
15256;SDS011;7731;50.720;6.912;2022-12-31T15:25:26;2.38;;;1.35;;
15256;SDS011;7731;50.720;6.912;2022-12-31T15:28:07;3.45;;;1.70;;
15256;SDS011;7731;50.720;6.912;2022-12-31T15:30:59;3.13;;;1.80;;
15256;SDS011;7731;50.720;6.912;2022-12-31T15:33:52;2.70;;;1.38;;
15256;SDS011;7731;50.720;6.912;2022-12-31T15:36:30;4.03;;;1.75;;
15256;SDS011;7731;50.720;6.912;2022-12-31T15:45:17;2.78;;;1.60;;
15256;SDS011;7731;50.720;6.912;2022-12-31T15:47:59;2.13;;;1.38;;
15256;SDS011;7731;50.720;6.912;2022-12-31T15:50:37;3.20;;;1.42;;
15256;SDS011;7731;50.720;6.912;2022-12-31T15:53:14;3.40;;;1.55;;
15256;SDS011;7731;50.720;6.912;2022-12-31T15:55:55;2.28;;;1.30;;
15256;SDS011;7731;50.720;6.912;2022-12-31T15:58:33;5.72;;;1.83;;
15256;SDS011;7731;50.720;6.912;2022-12-31T16:01:07;3.53;;;1.55;;
15256;SDS011;7731;50.720;6.912;2022-12-31T16:03:45;3.58;;;1.73;;
15256;SDS011;7731;50.720;6.912;2022-12-31T16:06:24;5.55;;;2.03;;
15256;SDS011;7731;50.720;6.912;2022-12-31T16:08:58;2.30;;;1.55;;
15256;SDS011;7731;50.720;6.912;2022-12-31T16:11:28;3.00;;;1.60;;
15256;SDS011;7731;50.720;6.912;2022-12-31T16:14:06;5.22;;;1.60;;
15256;SDS011;7731;50.720;6.912;2022-12-31T16:16:50;2.17;;;1.30;;
15256;SDS011;7731;50.720;6.912;2022-12-31T16:19:26;2.75;;;1.55;;
15256;SDS011;7731;50.720;6.912;2022-12-31T16:22:05;3.35;;;1.80;;
15256;SDS011;7731;50.720;6.912;2022-12-31T16:24:44;2.05;;;1.50;;
15256;SDS011;7731;50.720;6.912;2022-12-31T16:27:42;2.58;;;1.80;;
15256;SDS011;7731;50.720;6.912;2022-12-31T16:30:23;3.50;;;1.65;;
15256;SDS011;7731;50.720;6.912;2022-12-31T16:33:02;2.92;;;1.50;;
15256;SDS011;7731;50.720;6.912;2022-12-31T16:35:35;3.55;;;1.52;;
15256;SDS011;7731;50.720;6.912;2022-12-31T16:38:12;5.10;;;3.17;;
15256;SDS011;7731;50.720;6.912;2022-12-31T16:41:02;2.53;;;1.50;;
15256;SDS011;7731;50.720;6.912;2022-12-31T16:43:43;3.47;;;1.85;;
15256;SDS011;7731;50.720;6.912;2022-12-31T16:46:19;5.28;;;1.80;;
15256;SDS011;7731;50.720;6.912;2022-12-31T16:49:01;4.75;;;1.58;;
15256;SDS011;7731;50.720;6.912;2022-12-31T16:51:44;2.88;;;1.83;;
15256;SDS011;7731;50.720;6.912;2022-12-31T16:54:16;3.33;;;1.70;;
15256;SDS011;7731;50.720;6.912;2022-12-31T16:56:49;8.65;;;2.28;;
15256;SDS011;7731;50.720;6.912;2022-12-31T16:59:22;2.38;;;1.50;;
15256;SDS011;7731;50.720;6.912;2022-12-31T17:02:05;2.00;;;1.60;;
15256;SDS011;7731;50.720;6.912;2022-12-31T17:04:50;3.58;;;1.73;;
15256;SDS011;7731;50.720;6.912;2022-12-31T17:07:25;5.30;;;1.50;;
15256;SDS011;7731;50.720;6.912;2022-12-31T17:10:12;4.47;;;1.40;;
15256;SDS011;7731;50.720;6.912;2022-12-31T17:12:53;4.18;;;1.70;;
15256;SDS011;7731;50.720;6.912;2022-12-31T17:15:48;5.05;;;2.47;;